Thief River Falls, MN

1:09 AM CST on February 08, 2016 (GMT -0600)
Northern Thief River Falls | | Change Station
CLOSE
Current Station
Personal Weather Station
Location: Thief River Falls, MN
Elevation: 1135 ft
Nearby Weather Stations
Active Advisory: Winter Weather Advisory

Elev 1135 ft 48.12 °N, 96.18 °W | Updated 8 seconds ago

Snow
Snow
7.5 °F
Feels Like 8 °F
N
2.7
Wind Variable Wind from WNW
Gusts 4.9 mph

Today
High -- | Low -- °F
--% Chance of Precip.
Yesterday
High -- | Low -- °F
Precip. -- in
Pressure 30.03 in
Visibility 0.8 miles
Clouds
Windchill 8 °F
Dew Point -2 °F
Humidity 66%
Rainfall 0.00 in
Snow Depth Not available.
7:43 AM 5:35 PM
Waning Crescent, 0% visible
METAR KCKN 080655Z AUTO 35024G30KT 3/4SM SN VV005 M12/M13 A3003 RMK AO2
Pressure 30.03 in
Visibility 0.8 miles
Clouds
Windchill 8 °F
Dew Point -2 °F
Humidity 66%
Rainfall 0.00 in
Snow Depth Not available.
7:43 AM 5:35 PM
Waning Crescent, 0% visible
METAR KCKN 080655Z AUTO 35024G30KT 3/4SM SN VV005 M12/M13 A3003 RMK AO2

10-Day Weather Forecast

Almanac

Astronomy

Feb. 08, 2016 Rise Set
Actual Time
Civil Twilight
Nautical Twilight
Astronomical Twilight
Moon
Length of Visible Light
Length of Day
Tomorrow will be .
, % of the Moon is Illuminated

Today's Extremes

State Highs State Lows

Community

WunderPhotos

Upload Photos

1,891,394 photos uploaded!

WunderBlog® & News

Nearby

Air Quality

  Air Quality AQ Index Pollutant
Not available.

Snow Depth

Station Depth Elevation

Earthquake Activity

City Distance Mag. Time & Date
Minimum magnitude displayed is 2.5.

Coastal Water Temperatures

Place Temperature

Stations

Nearby Weather Stations

Station Location Temp. Windchill Dew Point Humidity Wind Precip. Elev Updated Type
                   

Watches & Warnings

Winter Weather Advisory
Issued: 8:10 PM CST Feb. 7, 2016 – National Weather Service

... Winter Weather Advisory remains in effect until 6 am CST
Monday...

* timing... expect snow to continue into tonight.

* Precipitation rates... the heaviest snowfall rates will occur
between now and 8 PM Sunday.

* Snow accumulations... around an inch.

* Winds / visibilities... winds gusting as high as 45 mph will
cause areas lower visibility to a half mile or less with snow
showers.

* Impacts... plan on slippery Road conditions.

* Winds... northwest 25 to 35 mph with gusts up to 45 mph.

Precautionary/preparedness actions...

A Winter Weather Advisory for snow means that periods of snow
will cause primarily travel difficulties. Be prepared for snow
covered roads and limited visibilities with stronger winds... and
use caution while driving.


Speicher